sensor_id;sensor_type;location;lat;lon;timestamp;pressure;altitude;pressure_sealevel;temperature;humidity
75013;BME280;63567;49.956;20.130;2023-04-24T00:00:32;96281.06;;;13.87;39.62
75013;BME280;63567;49.956;20.130;2023-04-24T00:02:57;96274.63;;;13.83;39.64
75013;BME280;63567;49.956;20.130;2023-04-24T00:05:23;96278.53;;;13.81;39.98
75013;BME280;63567;49.956;20.130;2023-04-24T00:07:49;96271.63;;;13.80;39.72
75013;BME280;63567;49.956;20.130;2023-04-24T00:10:18;96264.81;;;13.72;39.99
75013;BME280;63567;49.956;20.130;2023-04-24T00:12:43;96266.19;;;13.74;39.91
75013;BME280;63567;49.956;20.130;2023-04-24T00:15:09;96253.16;;;13.61;39.77
75013;BME280;63567;49.956;20.130;2023-04-24T00:17:34;96240.41;;;13.58;40.02
75013;BME280;63567;49.956;20.130;2023-04-24T00:20:00;96238.78;;;13.57;40.16
75013;BME280;63567;49.956;20.130;2023-04-24T00:22:27;96242.69;;;13.54;39.81
75013;BME280;63567;49.956;20.130;2023-04-24T00:24:53;96263.91;;;13.66;39.99
75013;BME280;63567;49.956;20.130;2023-04-24T00:27:18;96252.75;;;13.64;39.99
75013;BME280;63567;49.956;20.130;2023-04-24T00:29:44;96260.69;;;13.64;40.47
75013;BME280;63567;49.956;20.130;2023-04-24T00:32:09;96249.63;;;13.55;40.29
75013;BME280;63567;49.956;20.130;2023-04-24T00:34:35;96231.41;;;13.47;40.25
75013;BME280;63567;49.956;20.130;2023-04-24T00:37:00;96233.69;;;13.44;40.19
75013;BME280;63567;49.956;20.130;2023-04-24T00:39:26;96250.41;;;13.56;39.90
75013;BME280;63567;49.956;20.130;2023-04-24T00:41:52;96252.09;;;13.50;40.08
75013;BME280;63567;49.956;20.130;2023-04-24T00:44:18;96241.19;;;13.47;40.20
75013;BME280;63567;49.956;20.130;2023-04-24T00:46:43;96250.50;;;13.49;40.29
75013;BME280;63567;49.956;20.130;2023-04-24T00:49:08;96249.94;;;13.47;40.05
75013;BME280;63567;49.956;20.130;2023-04-24T00:51:34;96247.13;;;13.42;40.50
75013;BME280;63567;49.956;20.130;2023-04-24T00:54:00;96248.97;;;13.42;40.60
75013;BME280;63567;49.956;20.130;2023-04-24T00:56:26;96240.25;;;13.41;40.56
75013;BME280;63567;49.956;20.130;2023-04-24T00:58:52;96242.53;;;13.38;40.58
75013;BME280;63567;49.956;20.130;2023-04-24T01:01:19;96242.41;;;13.32;40.91
75013;BME280;63567;49.956;20.130;2023-04-24T01:03:46;96244.00;;;13.33;40.92
75013;BME280;63567;49.956;20.130;2023-04-24T01:06:12;96236.31;;;13.32;40.91
75013;BME280;63567;49.956;20.130;2023-04-24T01:08:39;96224.75;;;13.26;41.13
75013;BME280;63567;49.956;20.130;2023-04-24T01:11:05;96227.03;;;13.23;41.10
75013;BME280;63567;49.956;20.130;2023-04-24T01:13:31;96230.50;;;13.23;41.01
75013;BME280;63567;49.956;20.130;2023-04-24T01:15:57;96236.09;;;13.15;40.79
75013;BME280;63567;49.956;20.130;2023-04-24T01:18:22;96244.84;;;13.15;40.85
75013;BME280;63567;49.956;20.130;2023-04-24T01:20:51;96231.91;;;13.07;40.91
75013;BME280;63567;49.956;20.130;2023-04-24T01:23:18;96238.69;;;13.03;40.78
75013;BME280;63567;49.956;20.130;2023-04-24T01:25:44;96232.84;;;13.01;40.78
75013;BME280;63567;49.956;20.130;2023-04-24T01:28:09;96234.66;;;13.01;40.93
75013;BME280;63567;49.956;20.130;2023-04-24T01:30:35;96226.13;;;12.99;40.81
75013;BME280;63567;49.956;20.130;2023-04-24T01:33:01;96229.16;;;13.02;40.94
75013;BME280;63567;49.956;20.130;2023-04-24T01:35:26;96228.56;;;13.00;40.83
75013;BME280;63567;49.956;20.130;2023-04-24T01:37:52;96201.50;;;12.86;41.33
75013;BME280;63567;49.956;20.130;2023-04-24T01:40:17;96225.53;;;12.97;41.39
75013;BME280;63567;49.956;20.130;2023-04-24T01:42:43;96195.84;;;12.83;41.78
75013;BME280;63567;49.956;20.130;2023-04-24T01:45:11;96199.38;;;12.77;41.99
75013;BME280;63567;49.956;20.130;2023-04-24T01:47:37;96213.88;;;12.86;42.23
75013;BME280;63567;49.956;20.130;2023-04-24T01:50:04;96193.16;;;12.71;42.28
75013;BME280;63567;49.956;20.130;2023-04-24T01:52:30;96209.28;;;12.81;42.65
75013;BME280;63567;49.956;20.130;2023-04-24T01:54:59;96211.78;;;12.76;42.23
75013;BME280;63567;49.956;20.130;2023-04-24T01:57:25;96201.28;;;12.69;42.66
75013;BME280;63567;49.956;20.130;2023-04-24T01:59:51;96206.88;;;12.61;42.49
75013;BME280;63567;49.956;20.130;2023-04-24T02:02:16;96188.47;;;12.54;42.20
75013;BME280;63567;49.956;20.130;2023-04-24T02:04:42;96194.84;;;12.47;42.17
75013;BME280;63567;49.956;20.130;2023-04-24T02:07:07;96168.22;;;12.30;42.04
75013;BME280;63567;49.956;20.130;2023-04-24T02:09:33;96193.91;;;12.41;42.47
75013;BME280;63567;49.956;20.130;2023-04-24T02:11:58;96168.44;;;12.28;42.45
75013;BME280;63567;49.956;20.130;2023-04-24T02:14:23;96183.75;;;12.38;42.37
75013;BME280;63567;49.956;20.130;2023-04-24T02:16:49;96184.00;;;12.37;42.47
75013;BME280;63567;49.956;20.130;2023-04-24T02:19:14;96171.22;;;12.33;42.25
75013;BME280;63567;49.956;20.130;2023-04-24T02:21:40;96174.91;;;12.32;42.50
75013;BME280;63567;49.956;20.130;2023-04-24T02:24:06;96161.78;;;12.26;42.65
75013;BME280;63567;49.956;20.130;2023-04-24T02:26:31;96145.84;;;12.14;42.61
75013;BME280;63567;49.956;20.130;2023-04-24T02:28:57;96139.63;;;12.08;42.85
75013;BME280;63567;49.956;20.130;2023-04-24T02:31:22;96165.06;;;12.21;42.97
75013;BME280;63567;49.956;20.130;2023-04-24T02:33:48;96152.75;;;12.15;43.28
75013;BME280;63567;49.956;20.130;2023-04-24T02:36:13;96160.22;;;12.18;43.39
75013;BME280;63567;49.956;20.130;2023-04-24T02:38:39;96158.03;;;12.15;43.37
75013;BME280;63567;49.956;20.130;2023-04-24T02:41:04;96147.53;;;12.08;43.53
75013;BME280;63567;49.956;20.130;2023-04-24T02:43:31;96140.63;;;12.07;43.29
75013;BME280;63567;49.956;20.130;2023-04-24T02:45:57;96144.91;;;12.08;43.48
75013;BME280;63567;49.956;20.130;2023-04-24T02:48:23;96143.84;;;12.09;43.46
75013;BME280;63567;49.956;20.130;2023-04-24T02:50:49;96111.00;;;11.87;43.60
75013;BME280;63567;49.956;20.130;2023-04-24T02:53:14;96135.66;;;11.99;44.26
75013;BME280;63567;49.956;20.130;2023-04-24T02:55:39;96112.00;;;11.86;43.85
75013;BME280;63567;49.956;20.130;2023-04-24T02:58:05;96132.84;;;11.94;44.36
75013;BME280;63567;49.956;20.130;2023-04-24T03:00:31;96135.06;;;11.97;44.45
75013;BME280;63567;49.956;20.130;2023-04-24T03:02:56;96115.88;;;11.83;44.29
75013;BME280;63567;49.956;20.130;2023-04-24T03:05:22;96126.63;;;11.88;44.25
75013;BME280;63567;49.956;20.130;2023-04-24T03:07:47;96135.94;;;11.91;44.26
75013;BME280;63567;49.956;20.130;2023-04-24T03:10:13;96133.94;;;11.86;44.71
75013;BME280;63567;49.956;20.130;2023-04-24T03:12:39;96113.16;;;11.71;44.68
75013;BME280;63567;49.956;20.130;2023-04-24T03:15:04;96118.00;;;11.75;44.51
75013;BME280;63567;49.956;20.130;2023-04-24T03:17:30;96130.41;;;11.74;44.42
75013;BME280;63567;49.956;20.130;2023-04-24T03:19:55;96115.28;;;11.63;44.94
75013;BME280;63567;49.956;20.130;2023-04-24T03:22:21;96135.66;;;11.74;44.57
75013;BME280;63567;49.956;20.130;2023-04-24T03:24:46;96137.50;;;11.74;44.67
75013;BME280;63567;49.956;20.130;2023-04-24T03:27:11;96139.09;;;11.75;44.80
75013;BME280;63567;49.956;20.130;2023-04-24T03:29:37;96113.91;;;11.60;44.56
75013;BME280;63567;49.956;20.130;2023-04-24T03:32:02;96132.50;;;11.65;45.13
75013;BME280;63567;49.956;20.130;2023-04-24T03:34:27;96127.66;;;11.62;44.93
75013;BME280;63567;49.956;20.130;2023-04-24T03:36:53;96134.09;;;11.66;45.01
75013;BME280;63567;49.956;20.130;2023-04-24T03:39:18;96119.16;;;11.60;45.20
75013;BME280;63567;49.956;20.130;2023-04-24T03:41:44;96126.84;;;11.62;45.08
75013;BME280;63567;49.956;20.130;2023-04-24T03:44:09;96101.84;;;11.46;45.34
75013;BME280;63567;49.956;20.130;2023-04-24T03:46:34;96110.34;;;11.48;45.29
75013;BME280;63567;49.956;20.130;2023-04-24T03:49:00;96131.53;;;11.60;45.20
75013;BME280;63567;49.956;20.130;2023-04-24T03:51:26;96135.19;;;11.59;45.83
75013;BME280;63567;49.956;20.130;2023-04-24T03:53:53;96129.13;;;11.58;45.59
75013;BME280;63567;49.956;20.130;2023-04-24T03:56:18;96131.78;;;11.58;45.72
75013;BME280;63567;49.956;20.130;2023-04-24T03:58:43;96117.88;;;11.44;45.54
75013;BME280;63567;49.956;20.130;2023-04-24T04:01:09;96126.31;;;11.53;45.84
75013;BME280;63567;49.956;20.130;2023-04-24T04:03:35;96137.47;;;11.55;46.10
75013;BME280;63567;49.956;20.130;2023-04-24T04:06:00;96129.53;;;11.55;45.36
75013;BME280;63567;49.956;20.130;2023-04-24T04:08:26;96133.22;;;11.54;45.49
75013;BME280;63567;49.956;20.130;2023-04-24T04:10:51;96126.75;;;11.50;45.45
75013;BME280;63567;49.956;20.130;2023-04-24T04:13:16;96111.19;;;11.42;45.76
75013;BME280;63567;49.956;20.130;2023-04-24T04:15:42;96135.84;;;11.54;45.37
75013;BME280;63567;49.956;20.130;2023-04-24T04:18:07;96134.63;;;11.57;45.48
75013;BME280;63567;49.956;20.130;2023-04-24T04:20:33;96133.81;;;11.56;45.49
75013;BME280;63567;49.956;20.130;2023-04-24T04:22:58;96114.44;;;11.44;45.96
75013;BME280;63567;49.956;20.130;2023-04-24T04:25:26;96130.34;;;11.56;45.65
75013;BME280;63567;49.956;20.130;2023-04-24T04:27:52;96135.41;;;11.57;45.87
75013;BME280;63567;49.956;20.130;2023-04-24T04:30:18;96127.72;;;11.56;45.85
75013;BME280;63567;49.956;20.130;2023-04-24T04:32:44;96123.25;;;11.56;45.77
75013;BME280;63567;49.956;20.130;2023-04-24T04:35:09;96119.59;;;11.57;45.53
75013;BME280;63567;49.956;20.130;2023-04-24T04:37:35;96126.84;;;11.62;45.89
75013;BME280;63567;49.956;20.130;2023-04-24T04:40:01;96126.44;;;11.65;45.29
75013;BME280;63567;49.956;20.130;2023-04-24T04:42:31;96123.56;;;11.66;45.86
75013;BME280;63567;49.956;20.130;2023-04-24T04:44:57;96118.88;;;11.68;46.33
75013;BME280;63567;49.956;20.130;2023-04-24T04:47:23;96118.88;;;11.68;46.27
75013;BME280;63567;49.956;20.130;2023-04-24T04:49:48;96101.13;;;11.57;46.04
75013;BME280;63567;49.956;20.130;2023-04-24T04:52:14;96105.09;;;11.66;46.07
75013;BME280;63567;49.956;20.130;2023-04-24T04:54:39;96113.75;;;11.74;46.30
75013;BME280;63567;49.956;20.130;2023-04-24T04:57:05;96117.78;;;11.76;46.33
75013;BME280;63567;49.956;20.130;2023-04-24T04:59:31;96119.19;;;11.79;46.20
75013;BME280;63567;49.956;20.130;2023-04-24T05:01:56;96084.44;;;11.63;45.99
75013;BME280;63567;49.956;20.130;2023-04-24T05:04:21;96112.44;;;11.83;46.02
75013;BME280;63567;49.956;20.130;2023-04-24T05:06:47;96106.19;;;11.77;46.08
75013;BME280;63567;49.956;20.130;2023-04-24T05:09:12;96117.13;;;11.81;46.22
75013;BME280;63567;49.956;20.130;2023-04-24T05:11:37;96116.25;;;11.87;46.40
75013;BME280;63567;49.956;20.130;2023-04-24T05:14:03;96118.31;;;11.85;46.42
75013;BME280;63567;49.956;20.130;2023-04-24T05:16:28;96118.72;;;11.88;46.38
75013;BME280;63567;49.956;20.130;2023-04-24T05:18:54;96120.69;;;11.93;45.86
75013;BME280;63567;49.956;20.130;2023-04-24T05:21:19;96110.34;;;11.91;46.50
75013;BME280;63567;49.956;20.130;2023-04-24T05:23:45;96113.97;;;11.97;46.00
75013;BME280;63567;49.956;20.130;2023-04-24T05:26:10;96106.38;;;12.01;46.29
75013;BME280;63567;49.956;20.130;2023-04-24T05:28:36;96109.19;;;12.06;46.38
75013;BME280;63567;49.956;20.130;2023-04-24T05:31:02;96101.19;;;12.12;46.72
75013;BME280;63567;49.956;20.130;2023-04-24T05:33:28;96112.94;;;12.17;47.12
75013;BME280;63567;49.956;20.130;2023-04-24T05:35:54;96105.56;;;12.19;46.53
75013;BME280;63567;49.956;20.130;2023-04-24T05:38:19;96099.28;;;12.20;46.33
75013;BME280;63567;49.956;20.130;2023-04-24T05:40:45;96112.78;;;12.30;46.28
75013;BME280;63567;49.956;20.130;2023-04-24T05:43:11;96110.72;;;12.32;46.31
75013;BME280;63567;49.956;20.130;2023-04-24T05:45:37;96110.03;;;12.37;46.10
75013;BME280;63567;49.956;20.130;2023-04-24T05:48:03;96107.75;;;12.40;46.69
75013;BME280;63567;49.956;20.130;2023-04-24T05:50:28;96082.00;;;12.36;45.95
75013;BME280;63567;49.956;20.130;2023-04-24T05:52:54;96098.25;;;12.51;45.63
75013;BME280;63567;49.956;20.130;2023-04-24T05:55:19;96081.50;;;12.45;46.30
75013;BME280;63567;49.956;20.130;2023-04-24T05:57:45;96103.84;;;12.61;46.28
75013;BME280;63567;49.956;20.130;2023-04-24T06:00:11;96103.41;;;12.64;46.33
75013;BME280;63567;49.956;20.130;2023-04-24T06:02:37;96100.88;;;12.69;46.54
75013;BME280;63567;49.956;20.130;2023-04-24T06:05:03;96106.66;;;12.78;45.57
75013;BME280;63567;49.956;20.130;2023-04-24T06:07:30;96101.28;;;12.85;46.06
75013;BME280;63567;49.956;20.130;2023-04-24T06:09:55;96104.88;;;12.90;46.04
75013;BME280;63567;49.956;20.130;2023-04-24T06:12:21;96086.22;;;12.85;45.96
75013;BME280;63567;49.956;20.130;2023-04-24T06:14:47;96095.09;;;13.03;45.90
75013;BME280;63567;49.956;20.130;2023-04-24T06:17:12;96096.03;;;13.08;45.57
75013;BME280;63567;49.956;20.130;2023-04-24T06:19:38;96093.50;;;13.13;46.09
75013;BME280;63567;49.956;20.130;2023-04-24T06:22:03;96104.56;;;13.22;45.92
75013;BME280;63567;49.956;20.130;2023-04-24T06:24:29;96091.25;;;13.29;45.24
75013;BME280;63567;49.956;20.130;2023-04-24T06:26:55;96087.94;;;13.33;44.66
75013;BME280;63567;49.956;20.130;2023-04-24T06:29:21;96068.84;;;13.31;44.73
75013;BME280;63567;49.956;20.130;2023-04-24T06:31:47;96096.47;;;13.47;44.75
75013;BME280;63567;49.956;20.130;2023-04-24T06:34:12;96096.34;;;13.54;44.16
75013;BME280;63567;49.956;20.130;2023-04-24T06:36:38;96081.63;;;13.58;44.11
75013;BME280;63567;49.956;20.130;2023-04-24T06:39:03;96075.84;;;13.61;44.32
75013;BME280;63567;49.956;20.130;2023-04-24T06:41:29;96080.13;;;13.74;44.43
75013;BME280;63567;49.956;20.130;2023-04-24T06:43:54;96080.22;;;13.79;44.71
75013;BME280;63567;49.956;20.130;2023-04-24T06:46:20;96085.06;;;13.82;44.70
75013;BME280;63567;49.956;20.130;2023-04-24T06:48:48;96084.44;;;13.92;44.38
75013;BME280;63567;49.956;20.130;2023-04-24T06:51:14;96075.59;;;13.98;44.87
75013;BME280;63567;49.956;20.130;2023-04-24T06:53:39;96083.97;;;14.07;45.06
75013;BME280;63567;49.956;20.130;2023-04-24T06:56:05;96063.72;;;14.01;45.01
75013;BME280;63567;49.956;20.130;2023-04-24T06:58:30;96088.19;;;14.20;45.33
75013;BME280;63567;49.956;20.130;2023-04-24T07:00:55;96060.56;;;14.15;44.67
75013;BME280;63567;49.956;20.130;2023-04-24T07:03:21;96080.56;;;14.35;44.69
75013;BME280;63567;49.956;20.130;2023-04-24T07:05:46;96078.03;;;14.40;44.19
75013;BME280;63567;49.956;20.130;2023-04-24T07:08:13;96075.47;;;14.45;44.59
75013;BME280;63567;49.956;20.130;2023-04-24T07:10:38;96072.56;;;14.58;43.91
75013;BME280;63567;49.956;20.130;2023-04-24T07:13:04;96071.59;;;14.65;43.75
75013;BME280;63567;49.956;20.130;2023-04-24T07:15:29;96052.72;;;14.61;43.45
75013;BME280;63567;49.956;20.130;2023-04-24T07:17:55;96072.94;;;14.79;43.42
75013;BME280;63567;49.956;20.130;2023-04-24T07:20:21;96066.66;;;14.85;43.13
75013;BME280;63567;49.956;20.130;2023-04-24T07:22:46;96069.47;;;14.95;44.47
75013;BME280;63567;49.956;20.130;2023-04-24T07:25:13;96066.28;;;15.10;44.61
75013;BME280;63567;49.956;20.130;2023-04-24T07:27:38;96069.34;;;15.19;43.93
75013;BME280;63567;49.956;20.130;2023-04-24T07:30:04;96072.97;;;15.30;43.01
75013;BME280;63567;49.956;20.130;2023-04-24T07:32:30;96042.88;;;15.24;42.52
75013;BME280;63567;49.956;20.130;2023-04-24T07:34:55;96062.56;;;15.45;42.54
75013;BME280;63567;49.956;20.130;2023-04-24T07:37:21;96059.50;;;15.53;41.68
75013;BME280;63567;49.956;20.130;2023-04-24T07:39:46;96066.81;;;15.63;41.87
75013;BME280;63567;49.956;20.130;2023-04-24T07:42:12;96057.16;;;15.74;42.43
75013;BME280;63567;49.956;20.130;2023-04-24T07:44:37;96061.06;;;15.88;42.57
75013;BME280;63567;49.956;20.130;2023-04-24T07:47:02;96046.63;;;16.01;42.31
75013;BME280;63567;49.956;20.130;2023-04-24T07:49:28;96048.91;;;16.14;42.18
75013;BME280;63567;49.956;20.130;2023-04-24T07:51:53;96051.75;;;16.30;42.31
75013;BME280;63567;49.956;20.130;2023-04-24T07:54:18;96048.66;;;16.38;41.45
75013;BME280;63567;49.956;20.130;2023-04-24T07:56:44;96047.13;;;16.47;41.06
75013;BME280;63567;49.956;20.130;2023-04-24T07:59:10;96034.41;;;16.49;40.55
75013;BME280;63567;49.956;20.130;2023-04-24T08:01:36;96037.44;;;16.63;40.51
75013;BME280;63567;49.956;20.130;2023-04-24T08:04:02;96044.34;;;16.86;40.34
75013;BME280;63567;49.956;20.130;2023-04-24T08:06:27;96045.28;;;17.02;40.11
75013;BME280;63567;49.956;20.130;2023-04-24T08:08:58;96041.94;;;17.17;38.99
75013;BME280;63567;49.956;20.130;2023-04-24T08:11:24;96046.03;;;17.30;38.58
75013;BME280;63567;49.956;20.130;2023-04-24T08:13:49;96035.50;;;17.45;38.22
75013;BME280;63567;49.956;20.130;2023-04-24T08:16:15;96047.31;;;17.59;38.45
75013;BME280;63567;49.956;20.130;2023-04-24T08:18:40;96030.88;;;17.73;38.90
75013;BME280;63567;49.956;20.130;2023-04-24T08:21:06;96032.84;;;17.88;37.58
75013;BME280;63567;49.956;20.130;2023-04-24T08:23:31;96017.66;;;17.93;37.65
75013;BME280;63567;49.956;20.130;2023-04-24T08:25:57;96037.00;;;18.26;38.19
75013;BME280;63567;49.956;20.130;2023-04-24T08:28:23;96011.38;;;18.30;38.50
75013;BME280;63567;49.956;20.130;2023-04-24T08:30:48;96025.31;;;18.53;37.54
75013;BME280;63567;49.956;20.130;2023-04-24T08:33:19;96006.66;;;18.53;36.98
75013;BME280;63567;49.956;20.130;2023-04-24T08:35:44;96025.41;;;18.78;36.71
75013;BME280;63567;49.956;20.130;2023-04-24T08:38:10;96014.47;;;18.85;36.00
75013;BME280;63567;49.956;20.130;2023-04-24T08:40:36;96004.84;;;18.99;35.02
75013;BME280;63567;49.956;20.130;2023-04-24T08:43:03;96004.84;;;19.20;35.05
75013;BME280;63567;49.956;20.130;2023-04-24T08:45:29;96021.34;;;19.58;35.02
75013;BME280;63567;49.956;20.130;2023-04-24T08:47:54;96016.00;;;19.78;35.35
75013;BME280;63567;49.956;20.130;2023-04-24T08:50:21;96016.16;;;20.02;34.67
75013;BME280;63567;49.956;20.130;2023-04-24T08:52:50;96009.91;;;20.22;36.12
75013;BME280;63567;49.956;20.130;2023-04-24T08:55:16;95994.09;;;20.31;35.45
75013;BME280;63567;49.956;20.130;2023-04-24T08:57:45;96014.28;;;20.63;34.15
75013;BME280;63567;49.956;20.130;2023-04-24T09:00:11;95997.91;;;20.69;32.07
75013;BME280;63567;49.956;20.130;2023-04-24T09:02:39;96013.53;;;20.91;32.10
75013;BME280;63567;49.956;20.130;2023-04-24T09:05:07;96010.69;;;21.12;31.31
75013;BME280;63567;49.956;20.130;2023-04-24T09:07:35;96000.69;;;21.23;33.08
75013;BME280;63567;49.956;20.130;2023-04-24T09:10:02;96002.38;;;21.48;32.21
75013;BME280;63567;49.956;20.130;2023-04-24T09:12:28;96019.50;;;21.76;32.74
75013;BME280;63567;49.956;20.130;2023-04-24T09:14:54;95998.38;;;21.93;31.13
75013;BME280;63567;49.956;20.130;2023-04-24T09:17:20;95975.56;;;21.96;32.48
75013;BME280;63567;49.956;20.130;2023-04-24T09:19:48;95990.25;;;22.23;32.31
75013;BME280;63567;49.956;20.130;2023-04-24T09:22:13;96002.03;;;22.46;32.45
75013;BME280;63567;49.956;20.130;2023-04-24T09:24:40;95997.25;;;22.62;30.95
75013;BME280;63567;49.956;20.130;2023-04-24T09:27:06;95990.34;;;22.74;30.76
75013;BME280;63567;49.956;20.130;2023-04-24T09:29:32;95989.59;;;22.88;29.60
75013;BME280;63567;49.956;20.130;2023-04-24T09:31:58;95995.41;;;22.95;27.97
75013;BME280;63567;49.956;20.130;2023-04-24T09:34:27;95990.75;;;23.01;28.08
75013;BME280;63567;49.956;20.130;2023-04-24T09:36:53;95996.25;;;23.09;28.25
75013;BME280;63567;49.956;20.130;2023-04-24T09:39:19;95976.59;;;23.14;28.12
75013;BME280;63567;49.956;20.130;2023-04-24T09:41:55;95986.81;;;23.45;27.39
75013;BME280;63567;49.956;20.130;2023-04-24T09:44:26;95984.22;;;23.67;28.12
75013;BME280;63567;49.956;20.130;2023-04-24T09:46:57;95976.47;;;23.93;28.73
75013;BME280;63567;49.956;20.130;2023-04-24T09:49:24;95979.44;;;24.19;28.17
75013;BME280;63567;49.956;20.130;2023-04-24T09:51:50;95978.41;;;24.43;27.26
75013;BME280;63567;49.956;20.130;2023-04-24T09:54:20;95978.34;;;24.71;26.47
75013;BME280;63567;49.956;20.130;2023-04-24T09:56:48;95973.81;;;25.02;27.11
75013;BME280;63567;49.956;20.130;2023-04-24T09:59:16;95959.56;;;25.25;26.17
75013;BME280;63567;49.956;20.130;2023-04-24T10:01:42;95976.06;;;25.63;26.86
75013;BME280;63567;49.956;20.130;2023-04-24T10:04:17;95956.19;;;25.90;27.34
75013;BME280;63567;49.956;20.130;2023-04-24T10:06:43;95947.19;;;26.21;26.05
75013;BME280;63567;49.956;20.130;2023-04-24T10:09:09;95938.06;;;26.57;25.70
75013;BME280;63567;49.956;20.130;2023-04-24T10:11:37;95953.25;;;27.05;25.61
75013;BME280;63567;49.956;20.130;2023-04-24T10:14:06;95956.53;;;27.37;24.96
75013;BME280;63567;49.956;20.130;2023-04-24T10:16:32;95954.03;;;27.70;27.42
75013;BME280;63567;49.956;20.130;2023-04-24T10:18:59;95949.78;;;27.99;24.88
75013;BME280;63567;49.956;20.130;2023-04-24T10:21:26;95938.88;;;28.08;24.29
75013;BME280;63567;49.956;20.130;2023-04-24T10:23:52;95947.50;;;28.31;22.78
75013;BME280;63567;49.956;20.130;2023-04-24T10:26:19;95948.50;;;28.47;23.12
75013;BME280;63567;49.956;20.130;2023-04-24T10:28:47;95927.03;;;28.42;22.21
75013;BME280;63567;49.956;20.130;2023-04-24T10:31:14;95947.19;;;28.53;22.18
75013;BME280;63567;49.956;20.130;2023-04-24T10:33:41;95942.78;;;28.49;22.51
75013;BME280;63567;49.956;20.130;2023-04-24T10:36:09;95947.09;;;28.41;22.47
75013;BME280;63567;49.956;20.130;2023-04-24T10:38:35;95943.88;;;28.26;21.93
75013;BME280;63567;49.956;20.130;2023-04-24T10:41:12;95960.25;;;28.09;22.58
75013;BME280;63567;49.956;20.130;2023-04-24T10:43:44;95945.19;;;27.91;22.57
75013;BME280;63567;49.956;20.130;2023-04-24T10:46:10;95945.13;;;27.70;21.47
75013;BME280;63567;49.956;20.130;2023-04-24T10:48:36;95934.38;;;27.52;22.58
75013;BME280;63567;49.956;20.130;2023-04-24T10:51:11;95940.31;;;27.37;23.14
75013;BME280;63567;49.956;20.130;2023-04-24T10:53:37;95913.31;;;27.11;23.26
75013;BME280;63567;49.956;20.130;2023-04-24T10:56:06;95926.81;;;27.11;24.10
75013;BME280;63567;49.956;20.130;2023-04-24T10:58:41;95939.44;;;26.98;24.21
75013;BME280;63567;49.956;20.130;2023-04-24T11:01:08;95928.66;;;26.89;24.09
75013;BME280;63567;49.956;20.130;2023-04-24T11:03:34;95907.81;;;26.81;23.82
75013;BME280;63567;49.956;20.130;2023-04-24T11:06:08;95928.28;;;26.99;23.39
75013;BME280;63567;49.956;20.130;2023-04-24T11:08:44;95918.59;;;27.07;23.42
75013;BME280;63567;49.956;20.130;2023-04-24T11:11:15;95924.56;;;27.30;24.21
75013;BME280;63567;49.956;20.130;2023-04-24T11:16:25;95906.78;;;27.68;23.66
75013;BME280;63567;49.956;20.130;2023-04-24T11:18:52;95917.59;;;27.97;24.15
75013;BME280;63567;49.956;20.130;2023-04-24T11:21:22;95920.59;;;28.25;26.24
75013;BME280;63567;49.956;20.130;2023-04-24T11:23:47;95928.63;;;28.64;23.50
75013;BME280;63567;49.956;20.130;2023-04-24T11:26:21;95930.16;;;28.86;23.97
75013;BME280;63567;49.956;20.130;2023-04-24T11:28:47;95923.78;;;29.03;23.66
75013;BME280;63567;49.956;20.130;2023-04-24T11:31:41;95927.91;;;29.09;21.44
75013;BME280;63567;49.956;20.130;2023-04-24T11:34:14;95924.88;;;29.23;21.94
75013;BME280;63567;49.956;20.130;2023-04-24T11:36:42;95921.41;;;29.35;22.77
75013;BME280;63567;49.956;20.130;2023-04-24T11:39:08;95918.03;;;29.50;22.73
75013;BME280;63567;49.956;20.130;2023-04-24T11:41:35;95907.50;;;29.48;22.33
75013;BME280;63567;49.956;20.130;2023-04-24T11:44:00;95921.31;;;29.68;23.10
75013;BME280;63567;49.956;20.130;2023-04-24T11:46:28;95912.16;;;29.60;21.95
75013;BME280;63567;49.956;20.130;2023-04-24T11:48:54;95912.16;;;29.60;21.50
75013;BME280;63567;49.956;20.130;2023-04-24T11:51:19;95912.59;;;29.62;21.83
75013;BME280;63567;49.956;20.130;2023-04-24T11:53:44;95902.63;;;29.66;21.65
75013;BME280;63567;49.956;20.130;2023-04-24T11:56:10;95910.16;;;29.69;21.71
75013;BME280;63567;49.956;20.130;2023-04-24T11:58:37;95890.31;;;29.57;21.25
75013;BME280;63567;49.956;20.130;2023-04-24T12:01:03;95888.72;;;29.56;21.65
75013;BME280;63567;49.956;20.130;2023-04-24T12:03:29;95895.06;;;29.60;21.00
75013;BME280;63567;49.956;20.130;2023-04-24T12:06:05;95889.09;;;29.54;20.62
75013;BME280;63567;49.956;20.130;2023-04-24T12:08:32;95889.31;;;29.61;21.84
75013;BME280;63567;49.956;20.130;2023-04-24T12:11:00;95886.13;;;29.59;21.84
75013;BME280;63567;49.956;20.130;2023-04-24T12:13:26;95891.44;;;29.56;21.31
75013;BME280;63567;49.956;20.130;2023-04-24T12:15:51;95891.94;;;29.70;22.25
75013;BME280;63567;49.956;20.130;2023-04-24T12:18:17;95882.53;;;29.80;22.56
75013;BME280;63567;49.956;20.130;2023-04-24T12:20:42;95892.72;;;29.95;22.67
75013;BME280;63567;49.956;20.130;2023-04-24T12:23:08;95873.91;;;30.02;22.37
75013;BME280;63567;49.956;20.130;2023-04-24T12:25:33;95861.00;;;29.99;21.70
75013;BME280;63567;49.956;20.130;2023-04-24T12:30:28;95881.72;;;29.92;21.21
75013;BME280;63567;49.956;20.130;2023-04-24T12:32:54;95853.47;;;29.80;21.19
75013;BME280;63567;49.956;20.130;2023-04-24T12:35:22;95852.56;;;29.76;21.22
75013;BME280;63567;49.956;20.130;2023-04-24T12:37:47;95845.63;;;29.66;21.34
75013;BME280;63567;49.956;20.130;2023-04-24T12:40:13;95873.22;;;29.68;21.44
75013;BME280;63567;49.956;20.130;2023-04-24T12:45:12;95862.19;;;28.91;20.62
75013;BME280;63567;49.956;20.130;2023-04-24T12:47:39;95823.91;;;28.26;21.07
75013;BME280;63567;49.956;20.130;2023-04-24T12:50:09;95855.53;;;28.13;21.51
75013;BME280;63567;49.956;20.130;2023-04-24T12:52:35;95857.47;;;27.83;22.83